sensor_id;sensor_type;location;lat;lon;timestamp;P1;durP1;ratioP1;P2;durP2;ratioP2
10586;SDS011;5341;47.606;7.576;2022-07-06T00:01:23;3.13;;;1.70;;
10586;SDS011;5341;47.606;7.576;2022-07-06T00:03:51;3.63;;;2.08;;
10586;SDS011;5341;47.606;7.576;2022-07-06T00:06:18;5.80;;;1.77;;
10586;SDS011;5341;47.606;7.576;2022-07-06T00:08:46;3.20;;;1.60;;
10586;SDS011;5341;47.606;7.576;2022-07-06T00:11:13;3.78;;;1.70;;
10586;SDS011;5341;47.606;7.576;2022-07-06T00:13:41;5.22;;;1.70;;
10586;SDS011;5341;47.606;7.576;2022-07-06T00:16:14;3.55;;;1.75;;
10586;SDS011;5341;47.606;7.576;2022-07-06T00:18:44;4.05;;;1.70;;
10586;SDS011;5341;47.606;7.576;2022-07-06T00:21:13;6.82;;;1.90;;
10586;SDS011;5341;47.606;7.576;2022-07-06T00:23:42;3.95;;;1.60;;
10586;SDS011;5341;47.606;7.576;2022-07-06T00:26:10;3.95;;;1.70;;
10586;SDS011;5341;47.606;7.576;2022-07-06T00:28:37;3.17;;;1.75;;
10586;SDS011;5341;47.606;7.576;2022-07-06T00:31:05;2.97;;;1.58;;
10586;SDS011;5341;47.606;7.576;2022-07-06T00:33:33;3.78;;;1.42;;
10586;SDS011;5341;47.606;7.576;2022-07-06T00:36:03;3.80;;;1.50;;
10586;SDS011;5341;47.606;7.576;2022-07-06T00:38:31;2.97;;;1.60;;
10586;SDS011;5341;47.606;7.576;2022-07-06T00:40:58;2.42;;;1.70;;
10586;SDS011;5341;47.606;7.576;2022-07-06T00:43:26;2.40;;;1.50;;
10586;SDS011;5341;47.606;7.576;2022-07-06T00:45:53;3.03;;;1.70;;
10586;SDS011;5341;47.606;7.576;2022-07-06T00:48:21;3.33;;;1.70;;
10586;SDS011;5341;47.606;7.576;2022-07-06T00:50:49;4.38;;;1.80;;
10586;SDS011;5341;47.606;7.576;2022-07-06T00:53:18;3.40;;;1.58;;
10586;SDS011;5341;47.606;7.576;2022-07-06T00:55:47;3.25;;;1.42;;
10586;SDS011;5341;47.606;7.576;2022-07-06T00:58:16;3.08;;;1.50;;
10586;SDS011;5341;47.606;7.576;2022-07-06T01:00:43;2.75;;;1.58;;
10586;SDS011;5341;47.606;7.576;2022-07-06T01:03:11;2.55;;;1.58;;
10586;SDS011;5341;47.606;7.576;2022-07-06T01:05:38;5.32;;;1.65;;
10586;SDS011;5341;47.606;7.576;2022-07-06T01:08:06;2.88;;;1.67;;
10586;SDS011;5341;47.606;7.576;2022-07-06T01:10:35;3.70;;;1.50;;
10586;SDS011;5341;47.606;7.576;2022-07-06T01:13:03;2.75;;;1.60;;
10586;SDS011;5341;47.606;7.576;2022-07-06T01:15:31;3.65;;;1.50;;
10586;SDS011;5341;47.606;7.576;2022-07-06T01:17:59;4.57;;;1.80;;
10586;SDS011;5341;47.606;7.576;2022-07-06T01:20:31;3.33;;;1.85;;
10586;SDS011;5341;47.606;7.576;2022-07-06T01:22:59;3.25;;;1.50;;
10586;SDS011;5341;47.606;7.576;2022-07-06T01:25:28;4.65;;;1.55;;
10586;SDS011;5341;47.606;7.576;2022-07-06T01:27:56;5.15;;;1.60;;
10586;SDS011;5341;47.606;7.576;2022-07-06T01:30:23;3.78;;;1.70;;
10586;SDS011;5341;47.606;7.576;2022-07-06T01:32:51;5.28;;;1.70;;
10586;SDS011;5341;47.606;7.576;2022-07-06T01:35:18;2.35;;;1.40;;
10586;SDS011;5341;47.606;7.576;2022-07-06T01:37:48;3.22;;;1.63;;
10586;SDS011;5341;47.606;7.576;2022-07-06T01:40:15;2.63;;;1.63;;
10586;SDS011;5341;47.606;7.576;2022-07-06T01:42:43;3.22;;;1.77;;
10586;SDS011;5341;47.606;7.576;2022-07-06T01:45:12;2.47;;;1.52;;
10586;SDS011;5341;47.606;7.576;2022-07-06T01:47:41;2.38;;;1.45;;
10586;SDS011;5341;47.606;7.576;2022-07-06T01:50:10;1.95;;;1.42;;
10586;SDS011;5341;47.606;7.576;2022-07-06T01:52:41;2.40;;;1.40;;
10586;SDS011;5341;47.606;7.576;2022-07-06T01:55:10;4.53;;;1.58;;
10586;SDS011;5341;47.606;7.576;2022-07-06T01:57:38;5.20;;;1.73;;
10586;SDS011;5341;47.606;7.576;2022-07-06T02:00:09;1.92;;;1.48;;
10586;SDS011;5341;47.606;7.576;2022-07-06T02:02:44;3.13;;;1.50;;
10586;SDS011;5341;47.606;7.576;2022-07-06T02:05:15;3.25;;;1.50;;
10586;SDS011;5341;47.606;7.576;2022-07-06T02:07:43;6.50;;;1.70;;
10586;SDS011;5341;47.606;7.576;2022-07-06T02:10:13;4.30;;;1.60;;
10586;SDS011;5341;47.606;7.576;2022-07-06T02:12:42;2.13;;;1.40;;
10586;SDS011;5341;47.606;7.576;2022-07-06T02:15:10;2.75;;;1.50;;
10586;SDS011;5341;47.606;7.576;2022-07-06T02:17:39;4.22;;;1.70;;
10586;SDS011;5341;47.606;7.576;2022-07-06T02:20:09;4.70;;;1.63;;
10586;SDS011;5341;47.606;7.576;2022-07-06T02:22:41;5.68;;;1.90;;
10586;SDS011;5341;47.606;7.576;2022-07-06T02:25:09;3.53;;;1.55;;
10586;SDS011;5341;47.606;7.576;2022-07-06T02:27:40;3.45;;;1.67;;
10586;SDS011;5341;47.606;7.576;2022-07-06T02:30:10;3.10;;;1.70;;
10586;SDS011;5341;47.606;7.576;2022-07-06T02:32:38;3.30;;;1.48;;
10586;SDS011;5341;47.606;7.576;2022-07-06T02:35:06;1.55;;;1.45;;
10586;SDS011;5341;47.606;7.576;2022-07-06T02:37:34;2.08;;;1.50;;
10586;SDS011;5341;47.606;7.576;2022-07-06T02:40:01;2.03;;;1.70;;
10586;SDS011;5341;47.606;7.576;2022-07-06T02:42:31;2.75;;;1.58;;
10586;SDS011;5341;47.606;7.576;2022-07-06T02:45:01;4.18;;;1.70;;
10586;SDS011;5341;47.606;7.576;2022-07-06T02:47:29;1.75;;;1.40;;
10586;SDS011;5341;47.606;7.576;2022-07-06T02:49:57;3.25;;;1.70;;
10586;SDS011;5341;47.606;7.576;2022-07-06T02:52:24;1.92;;;1.58;;
10586;SDS011;5341;47.606;7.576;2022-07-06T02:54:53;3.40;;;1.42;;
10586;SDS011;5341;47.606;7.576;2022-07-06T02:57:21;2.97;;;1.75;;
10586;SDS011;5341;47.606;7.576;2022-07-06T02:59:48;3.53;;;1.40;;
10586;SDS011;5341;47.606;7.576;2022-07-06T03:02:19;1.80;;;1.50;;
10586;SDS011;5341;47.606;7.576;2022-07-06T03:04:46;2.90;;;1.50;;
10586;SDS011;5341;47.606;7.576;2022-07-06T03:07:15;2.85;;;1.67;;
10586;SDS011;5341;47.606;7.576;2022-07-06T03:09:43;2.13;;;1.55;;
10586;SDS011;5341;47.606;7.576;2022-07-06T03:12:11;2.83;;;1.50;;
10586;SDS011;5341;47.606;7.576;2022-07-06T03:14:39;2.58;;;1.63;;
10586;SDS011;5341;47.606;7.576;2022-07-06T03:17:06;2.03;;;1.60;;
10586;SDS011;5341;47.606;7.576;2022-07-06T03:19:35;3.40;;;1.70;;
10586;SDS011;5341;47.606;7.576;2022-07-06T03:22:03;1.50;;;1.40;;
10586;SDS011;5341;47.606;7.576;2022-07-06T03:24:31;2.63;;;1.77;;
10586;SDS011;5341;47.606;7.576;2022-07-06T03:26:58;2.67;;;1.60;;
10586;SDS011;5341;47.606;7.576;2022-07-06T03:29:26;2.47;;;1.60;;
10586;SDS011;5341;47.606;7.576;2022-07-06T03:31:54;2.22;;;1.60;;
10586;SDS011;5341;47.606;7.576;2022-07-06T03:34:22;1.88;;;1.52;;
10586;SDS011;5341;47.606;7.576;2022-07-06T03:36:52;2.65;;;1.55;;
10586;SDS011;5341;47.606;7.576;2022-07-06T03:39:20;2.22;;;1.70;;
10586;SDS011;5341;47.606;7.576;2022-07-06T03:41:49;5.13;;;1.73;;
10586;SDS011;5341;47.606;7.576;2022-07-06T03:44:17;2.55;;;1.63;;
10586;SDS011;5341;47.606;7.576;2022-07-06T03:46:46;2.42;;;1.70;;
10586;SDS011;5341;47.606;7.576;2022-07-06T03:49:15;5.43;;;1.63;;
10586;SDS011;5341;47.606;7.576;2022-07-06T03:51:44;3.03;;;1.67;;
10586;SDS011;5341;47.606;7.576;2022-07-06T03:54:13;3.25;;;1.60;;
10586;SDS011;5341;47.606;7.576;2022-07-06T03:56:41;3.13;;;1.60;;
10586;SDS011;5341;47.606;7.576;2022-07-06T03:59:13;4.90;;;2.00;;
10586;SDS011;5341;47.606;7.576;2022-07-06T04:01:41;2.75;;;1.75;;
10586;SDS011;5341;47.606;7.576;2022-07-06T04:04:12;2.35;;;1.80;;
10586;SDS011;5341;47.606;7.576;2022-07-06T04:06:43;2.17;;;1.60;;
10586;SDS011;5341;47.606;7.576;2022-07-06T04:09:10;4.97;;;1.88;;
10586;SDS011;5341;47.606;7.576;2022-07-06T04:11:40;2.13;;;1.70;;
10586;SDS011;5341;47.606;7.576;2022-07-06T04:14:08;3.70;;;1.80;;
10586;SDS011;5341;47.606;7.576;2022-07-06T04:16:37;5.85;;;2.00;;
10586;SDS011;5341;47.606;7.576;2022-07-06T04:19:04;2.50;;;1.73;;
10586;SDS011;5341;47.606;7.576;2022-07-06T04:21:32;2.25;;;1.70;;
10586;SDS011;5341;47.606;7.576;2022-07-06T04:23:59;3.97;;;1.80;;
10586;SDS011;5341;47.606;7.576;2022-07-06T04:26:27;2.75;;;1.83;;
10586;SDS011;5341;47.606;7.576;2022-07-06T04:28:58;2.83;;;1.83;;
10586;SDS011;5341;47.606;7.576;2022-07-06T04:31:27;3.05;;;1.88;;
10586;SDS011;5341;47.606;7.576;2022-07-06T04:33:55;2.35;;;1.60;;
10586;SDS011;5341;47.606;7.576;2022-07-06T04:36:25;2.55;;;1.70;;
10586;SDS011;5341;47.606;7.576;2022-07-06T04:38:54;2.28;;;1.73;;
10586;SDS011;5341;47.606;7.576;2022-07-06T04:41:22;3.03;;;1.60;;
10586;SDS011;5341;47.606;7.576;2022-07-06T04:43:51;3.40;;;1.77;;
10586;SDS011;5341;47.606;7.576;2022-07-06T04:46:21;2.78;;;1.60;;
10586;SDS011;5341;47.606;7.576;2022-07-06T04:48:51;2.55;;;1.75;;
10586;SDS011;5341;47.606;7.576;2022-07-06T04:51:25;2.75;;;1.90;;
10586;SDS011;5341;47.606;7.576;2022-07-06T04:53:53;3.75;;;2.20;;
10586;SDS011;5341;47.606;7.576;2022-07-06T04:56:21;2.00;;;1.60;;
10586;SDS011;5341;47.606;7.576;2022-07-06T04:58:49;2.90;;;1.88;;
10586;SDS011;5341;47.606;7.576;2022-07-06T05:01:19;2.90;;;1.92;;
10586;SDS011;5341;47.606;7.576;2022-07-06T05:03:48;1.92;;;1.52;;
10586;SDS011;5341;47.606;7.576;2022-07-06T05:06:19;2.53;;;1.90;;
10586;SDS011;5341;47.606;7.576;2022-07-06T05:08:46;2.50;;;1.90;;
10586;SDS011;5341;47.606;7.576;2022-07-06T05:11:14;2.65;;;2.05;;
10586;SDS011;5341;47.606;7.576;2022-07-06T05:13:42;4.53;;;1.80;;
10586;SDS011;5341;47.606;7.576;2022-07-06T05:16:10;2.60;;;2.03;;
10586;SDS011;5341;47.606;7.576;2022-07-06T05:18:39;3.53;;;1.90;;
10586;SDS011;5341;47.606;7.576;2022-07-06T05:21:10;3.03;;;2.00;;
10586;SDS011;5341;47.606;7.576;2022-07-06T05:23:41;4.03;;;2.00;;
10586;SDS011;5341;47.606;7.576;2022-07-06T05:26:09;3.00;;;1.80;;
10586;SDS011;5341;47.606;7.576;2022-07-06T05:28:38;2.38;;;1.80;;
10586;SDS011;5341;47.606;7.576;2022-07-06T05:31:10;3.47;;;1.85;;
10586;SDS011;5341;47.606;7.576;2022-07-06T05:33:40;4.35;;;2.03;;
10586;SDS011;5341;47.606;7.576;2022-07-06T05:36:12;3.60;;;1.85;;
10586;SDS011;5341;47.606;7.576;2022-07-06T05:38:44;2.92;;;2.00;;
10586;SDS011;5341;47.606;7.576;2022-07-06T05:41:12;3.65;;;1.98;;
10586;SDS011;5341;47.606;7.576;2022-07-06T05:43:40;2.72;;;2.15;;
10586;SDS011;5341;47.606;7.576;2022-07-06T05:46:08;2.60;;;1.92;;
10586;SDS011;5341;47.606;7.576;2022-07-06T05:48:36;4.57;;;1.90;;
10586;SDS011;5341;47.606;7.576;2022-07-06T05:51:24;3.08;;;2.00;;
10586;SDS011;5341;47.606;7.576;2022-07-06T05:53:56;3.78;;;2.15;;
10586;SDS011;5341;47.606;7.576;2022-07-06T05:56:26;3.30;;;1.90;;
10586;SDS011;5341;47.606;7.576;2022-07-06T05:58:59;3.00;;;2.20;;
10586;SDS011;5341;47.606;7.576;2022-07-06T06:01:29;3.97;;;2.10;;
10586;SDS011;5341;47.606;7.576;2022-07-06T06:04:06;2.53;;;1.98;;
10586;SDS011;5341;47.606;7.576;2022-07-06T06:06:36;3.38;;;2.10;;
10586;SDS011;5341;47.606;7.576;2022-07-06T06:09:04;2.88;;;2.20;;
10586;SDS011;5341;47.606;7.576;2022-07-06T06:11:34;3.08;;;1.92;;
10586;SDS011;5341;47.606;7.576;2022-07-06T06:14:02;3.42;;;2.10;;
10586;SDS011;5341;47.606;7.576;2022-07-06T06:16:31;4.50;;;2.33;;
10586;SDS011;5341;47.606;7.576;2022-07-06T06:19:00;3.80;;;2.10;;
10586;SDS011;5341;47.606;7.576;2022-07-06T06:21:28;3.53;;;1.90;;
10586;SDS011;5341;47.606;7.576;2022-07-06T06:23:57;4.68;;;2.00;;
10586;SDS011;5341;47.606;7.576;2022-07-06T06:26:26;3.85;;;1.98;;
10586;SDS011;5341;47.606;7.576;2022-07-06T06:28:55;2.95;;;1.92;;
10586;SDS011;5341;47.606;7.576;2022-07-06T06:31:23;2.47;;;2.00;;
10586;SDS011;5341;47.606;7.576;2022-07-06T06:33:51;2.42;;;2.05;;
10586;SDS011;5341;47.606;7.576;2022-07-06T06:36:20;3.60;;;2.30;;
10586;SDS011;5341;47.606;7.576;2022-07-06T06:38:48;3.17;;;2.03;;
10586;SDS011;5341;47.606;7.576;2022-07-06T06:41:17;2.47;;;1.92;;
10586;SDS011;5341;47.606;7.576;2022-07-06T06:43:46;3.08;;;2.13;;
10586;SDS011;5341;47.606;7.576;2022-07-06T06:46:17;3.72;;;2.10;;
10586;SDS011;5341;47.606;7.576;2022-07-06T06:48:45;2.70;;;1.73;;
10586;SDS011;5341;47.606;7.576;2022-07-06T06:51:14;3.80;;;2.10;;
10586;SDS011;5341;47.606;7.576;2022-07-06T06:53:43;4.10;;;2.50;;
10586;SDS011;5341;47.606;7.576;2022-07-06T06:56:14;2.40;;;2.05;;
10586;SDS011;5341;47.606;7.576;2022-07-06T06:58:44;3.35;;;2.30;;
10586;SDS011;5341;47.606;7.576;2022-07-06T07:01:13;3.95;;;2.15;;
10586;SDS011;5341;47.606;7.576;2022-07-06T07:03:41;4.35;;;2.00;;
10586;SDS011;5341;47.606;7.576;2022-07-06T07:06:09;3.42;;;1.98;;
10586;SDS011;5341;47.606;7.576;2022-07-06T07:08:36;3.28;;;2.10;;
10586;SDS011;5341;47.606;7.576;2022-07-06T07:11:03;3.40;;;1.83;;
10586;SDS011;5341;47.606;7.576;2022-07-06T07:13:31;2.17;;;1.90;;
10586;SDS011;5341;47.606;7.576;2022-07-06T07:16:00;4.82;;;1.75;;
10586;SDS011;5341;47.606;7.576;2022-07-06T07:18:28;3.33;;;2.17;;
10586;SDS011;5341;47.606;7.576;2022-07-06T07:20:56;3.13;;;2.00;;
10586;SDS011;5341;47.606;7.576;2022-07-06T07:23:23;4.80;;;2.25;;
10586;SDS011;5341;47.606;7.576;2022-07-06T07:25:51;3.20;;;2.08;;
10586;SDS011;5341;47.606;7.576;2022-07-06T07:28:18;5.55;;;2.13;;
10586;SDS011;5341;47.606;7.576;2022-07-06T07:30:45;5.75;;;2.08;;
10586;SDS011;5341;47.606;7.576;2022-07-06T07:33:14;4.10;;;2.13;;
10586;SDS011;5341;47.606;7.576;2022-07-06T07:35:42;3.03;;;2.00;;
10586;SDS011;5341;47.606;7.576;2022-07-06T07:38:10;3.95;;;2.33;;
10586;SDS011;5341;47.606;7.576;2022-07-06T07:40:37;3.30;;;2.35;;
10586;SDS011;5341;47.606;7.576;2022-07-06T07:43:04;4.38;;;1.92;;
10586;SDS011;5341;47.606;7.576;2022-07-06T07:45:32;3.88;;;2.50;;
10586;SDS011;5341;47.606;7.576;2022-07-06T07:48:00;4.05;;;2.30;;
10586;SDS011;5341;47.606;7.576;2022-07-06T07:50:29;4.93;;;2.28;;
10586;SDS011;5341;47.606;7.576;2022-07-06T07:52:57;4.78;;;2.40;;
10586;SDS011;5341;47.606;7.576;2022-07-06T07:55:24;3.80;;;2.35;;
10586;SDS011;5341;47.606;7.576;2022-07-06T07:57:52;5.43;;;2.70;;
10586;SDS011;5341;47.606;7.576;2022-07-06T08:00:19;3.60;;;2.17;;
10586;SDS011;5341;47.606;7.576;2022-07-06T08:02:48;7.07;;;3.47;;
10586;SDS011;5341;47.606;7.576;2022-07-06T08:05:15;3.15;;;2.22;;
10586;SDS011;5341;47.606;7.576;2022-07-06T08:07:45;6.40;;;2.95;;
10586;SDS011;5341;47.606;7.576;2022-07-06T08:10:12;5.03;;;2.70;;
10586;SDS011;5341;47.606;7.576;2022-07-06T08:12:40;5.25;;;2.50;;
10586;SDS011;5341;47.606;7.576;2022-07-06T08:15:08;5.88;;;2.70;;
10586;SDS011;5341;47.606;7.576;2022-07-06T08:17:35;7.45;;;2.97;;
10586;SDS011;5341;47.606;7.576;2022-07-06T08:20:05;4.30;;;2.75;;
10586;SDS011;5341;47.606;7.576;2022-07-06T08:22:34;5.85;;;2.80;;
10586;SDS011;5341;47.606;7.576;2022-07-06T08:25:04;5.15;;;2.70;;
10586;SDS011;5341;47.606;7.576;2022-07-06T08:27:32;4.55;;;2.45;;
10586;SDS011;5341;47.606;7.576;2022-07-06T08:30:00;6.97;;;2.97;;
10586;SDS011;5341;47.606;7.576;2022-07-06T08:32:27;5.10;;;3.05;;
10586;SDS011;5341;47.606;7.576;2022-07-06T08:34:55;7.97;;;3.38;;
10586;SDS011;5341;47.606;7.576;2022-07-06T08:37:22;7.05;;;3.50;;
10586;SDS011;5341;47.606;7.576;2022-07-06T08:39:50;8.18;;;3.95;;
10586;SDS011;5341;47.606;7.576;2022-07-06T08:42:19;5.60;;;3.20;;
10586;SDS011;5341;47.606;7.576;2022-07-06T08:44:47;6.32;;;3.05;;
10586;SDS011;5341;47.606;7.576;2022-07-06T08:47:17;5.75;;;2.85;;
10586;SDS011;5341;47.606;7.576;2022-07-06T08:49:47;5.72;;;3.25;;
10586;SDS011;5341;47.606;7.576;2022-07-06T08:52:14;7.65;;;3.42;;
10586;SDS011;5341;47.606;7.576;2022-07-06T08:54:42;5.35;;;3.83;;
10586;SDS011;5341;47.606;7.576;2022-07-06T08:57:10;8.23;;;3.35;;
10586;SDS011;5341;47.606;7.576;2022-07-06T08:59:39;6.00;;;3.40;;
10586;SDS011;5341;47.606;7.576;2022-07-06T09:02:07;5.65;;;2.60;;
10586;SDS011;5341;47.606;7.576;2022-07-06T09:04:37;4.63;;;2.67;;
10586;SDS011;5341;47.606;7.576;2022-07-06T09:07:05;9.80;;;2.78;;
10586;SDS011;5341;47.606;7.576;2022-07-06T09:09:33;3.50;;;2.63;;
10586;SDS011;5341;47.606;7.576;2022-07-06T09:12:04;8.35;;;3.00;;
10586;SDS011;5341;47.606;7.576;2022-07-06T09:14:36;5.30;;;2.80;;
10586;SDS011;5341;47.606;7.576;2022-07-06T09:17:05;6.45;;;2.60;;
10586;SDS011;5341;47.606;7.576;2022-07-06T09:19:34;5.10;;;2.58;;
10586;SDS011;5341;47.606;7.576;2022-07-06T09:22:02;3.63;;;2.40;;
10586;SDS011;5341;47.606;7.576;2022-07-06T09:24:31;4.63;;;2.38;;
10586;SDS011;5341;47.606;7.576;2022-07-06T09:26:58;6.28;;;2.60;;
10586;SDS011;5341;47.606;7.576;2022-07-06T09:29:27;6.88;;;2.63;;
10586;SDS011;5341;47.606;7.576;2022-07-06T09:31:55;3.50;;;2.13;;
10586;SDS011;5341;47.606;7.576;2022-07-06T09:34:27;7.63;;;3.00;;
10586;SDS011;5341;47.606;7.576;2022-07-06T09:37:12;5.53;;;2.80;;
10586;SDS011;5341;47.606;7.576;2022-07-06T09:39:42;5.22;;;2.45;;
10586;SDS011;5341;47.606;7.576;2022-07-06T09:42:12;5.82;;;2.63;;
10586;SDS011;5341;47.606;7.576;2022-07-06T09:44:41;5.22;;;2.30;;
10586;SDS011;5341;47.606;7.576;2022-07-06T09:47:10;4.57;;;2.28;;
10586;SDS011;5341;47.606;7.576;2022-07-06T09:49:41;6.68;;;2.75;;
10586;SDS011;5341;47.606;7.576;2022-07-06T09:52:09;3.13;;;2.10;;
10586;SDS011;5341;47.606;7.576;2022-07-06T09:54:38;4.60;;;2.28;;
10586;SDS011;5341;47.606;7.576;2022-07-06T09:57:06;4.63;;;2.10;;
10586;SDS011;5341;47.606;7.576;2022-07-06T09:59:36;4.20;;;2.30;;
10586;SDS011;5341;47.606;7.576;2022-07-06T10:02:05;5.72;;;2.20;;
10586;SDS011;5341;47.606;7.576;2022-07-06T10:04:34;2.83;;;1.85;;
10586;SDS011;5341;47.606;7.576;2022-07-06T10:07:06;3.28;;;2.20;;
10586;SDS011;5341;47.606;7.576;2022-07-06T10:09:35;6.55;;;1.90;;
10586;SDS011;5341;47.606;7.576;2022-07-06T10:12:05;4.97;;;2.10;;
10586;SDS011;5341;47.606;7.576;2022-07-06T10:14:37;3.30;;;2.00;;
10586;SDS011;5341;47.606;7.576;2022-07-06T10:17:09;3.70;;;2.30;;
10586;SDS011;5341;47.606;7.576;2022-07-06T10:19:39;4.47;;;2.20;;
10586;SDS011;5341;47.606;7.576;2022-07-06T10:22:08;6.38;;;2.10;;
10586;SDS011;5341;47.606;7.576;2022-07-06T10:24:39;5.10;;;2.40;;
10586;SDS011;5341;47.606;7.576;2022-07-06T10:27:10;5.20;;;2.15;;
10586;SDS011;5341;47.606;7.576;2022-07-06T10:29:38;3.55;;;1.77;;
10586;SDS011;5341;47.606;7.576;2022-07-06T10:32:06;4.70;;;1.98;;
10586;SDS011;5341;47.606;7.576;2022-07-06T10:34:35;3.63;;;2.10;;
10586;SDS011;5341;47.606;7.576;2022-07-06T10:37:03;2.03;;;1.55;;
10586;SDS011;5341;47.606;7.576;2022-07-06T10:39:34;2.78;;;1.95;;
10586;SDS011;5341;47.606;7.576;2022-07-06T10:45:17;2.63;;;1.77;;
10586;SDS011;5341;47.606;7.576;2022-07-06T10:50:50;2.20;;;1.80;;
10586;SDS011;5341;47.606;7.576;2022-07-06T10:53:23;2.22;;;1.80;;
10586;SDS011;5341;47.606;7.576;2022-07-06T10:55:53;4.43;;;1.98;;
10586;SDS011;5341;47.606;7.576;2022-07-06T11:01:16;3.92;;;1.85;;
10586;SDS011;5341;47.606;7.576;2022-07-06T11:03:45;4.18;;;1.92;;
10586;SDS011;5341;47.606;7.576;2022-07-06T11:06:14;6.15;;;2.10;;
10586;SDS011;5341;47.606;7.576;2022-07-06T11:08:47;2.75;;;1.52;;
10586;SDS011;5341;47.606;7.576;2022-07-06T11:11:22;5.22;;;1.70;;
10586;SDS011;5341;47.606;7.576;2022-07-06T11:13:52;3.90;;;1.90;;
10586;SDS011;5341;47.606;7.576;2022-07-06T11:16:21;4.85;;;1.95;;
10586;SDS011;5341;47.606;7.576;2022-07-06T11:19:01;3.70;;;1.95;;
10586;SDS011;5341;47.606;7.576;2022-07-06T11:21:32;4.70;;;1.80;;
10586;SDS011;5341;47.606;7.576;2022-07-06T11:24:01;2.42;;;1.70;;
10586;SDS011;5341;47.606;7.576;2022-07-06T11:26:32;2.90;;;2.00;;
10586;SDS011;5341;47.606;7.576;2022-07-06T11:29:02;3.40;;;2.00;;
10586;SDS011;5341;47.606;7.576;2022-07-06T11:31:35;3.47;;;1.92;;
10586;SDS011;5341;47.606;7.576;2022-07-06T11:34:04;3.85;;;1.83;;
10586;SDS011;5341;47.606;7.576;2022-07-06T11:36:33;3.42;;;1.85;;
10586;SDS011;5341;47.606;7.576;2022-07-06T11:39:01;4.65;;;1.80;;
10586;SDS011;5341;47.606;7.576;2022-07-06T11:41:32;3.35;;;2.00;;
10586;SDS011;5341;47.606;7.576;2022-07-06T11:44:00;4.30;;;1.65;;
10586;SDS011;5341;47.606;7.576;2022-07-06T11:46:28;2.78;;;1.70;;
10586;SDS011;5341;47.606;7.576;2022-07-06T11:48:57;3.60;;;2.28;;
10586;SDS011;5341;47.606;7.576;2022-07-06T11:51:25;3.75;;;1.90;;
10586;SDS011;5341;47.606;7.576;2022-07-06T11:53:55;6.50;;;1.65;;
10586;SDS011;5341;47.606;7.576;2022-07-06T11:56:25;3.65;;;2.03;;
10586;SDS011;5341;47.606;7.576;2022-07-06T11:58:55;5.53;;;2.00;;
10586;SDS011;5341;47.606;7.576;2022-07-06T12:01:24;3.42;;;2.00;;
10586;SDS011;5341;47.606;7.576;2022-07-06T12:03:53;4.13;;;1.85;;
10586;SDS011;5341;47.606;7.576;2022-07-06T12:06:24;3.00;;;1.73;;
10586;SDS011;5341;47.606;7.576;2022-07-06T12:08:52;4.97;;;2.17;;
10586;SDS011;5341;47.606;7.576;2022-07-06T12:11:21;3.05;;;1.85;;
10586;SDS011;5341;47.606;7.576;2022-07-06T12:13:50;3.88;;;1.63;;
10586;SDS011;5341;47.606;7.576;2022-07-06T12:16:19;4.30;;;1.92;;
10586;SDS011;5341;47.606;7.576;2022-07-06T12:18:49;3.10;;;1.88;;
10586;SDS011;5341;47.606;7.576;2022-07-06T12:21:17;4.32;;;2.00;;
10586;SDS011;5341;47.606;7.576;2022-07-06T12:23:47;3.17;;;1.80;;
10586;SDS011;5341;47.606;7.576;2022-07-06T12:26:16;3.97;;;1.85;;
10586;SDS011;5341;47.606;7.576;2022-07-06T12:28:45;3.67;;;2.10;;
10586;SDS011;5341;47.606;7.576;2022-07-06T12:34:01;3.53;;;1.60;;
10586;SDS011;5341;47.606;7.576;2022-07-06T12:36:29;3.40;;;1.75;;
10586;SDS011;5341;47.606;7.576;2022-07-06T12:38:57;5.97;;;1.88;;
10586;SDS011;5341;47.606;7.576;2022-07-06T12:41:29;4.43;;;1.80;;
10586;SDS011;5341;47.606;7.576;2022-07-06T12:44:02;4.93;;;1.85;;
10586;SDS011;5341;47.606;7.576;2022-07-06T12:46:34;4.07;;;1.90;;
10586;SDS011;5341;47.606;7.576;2022-07-06T12:49:04;3.95;;;1.85;;
10586;SDS011;5341;47.606;7.576;2022-07-06T12:51:53;5.45;;;1.95;;
10586;SDS011;5341;47.606;7.576;2022-07-06T12:54:22;3.15;;;1.90;;
10586;SDS011;5341;47.606;7.576;2022-07-06T12:57:04;3.80;;;1.70;;
10586;SDS011;5341;47.606;7.576;2022-07-06T12:59:36;5.00;;;1.65;;
10586;SDS011;5341;47.606;7.576;2022-07-06T13:02:07;4.47;;;1.88;;
10586;SDS011;5341;47.606;7.576;2022-07-06T13:04:36;4.28;;;1.90;;
10586;SDS011;5341;47.606;7.576;2022-07-06T13:07:04;4.95;;;1.73;;
10586;SDS011;5341;47.606;7.576;2022-07-06T13:09:32;2.15;;;1.88;;
10586;SDS011;5341;47.606;7.576;2022-07-06T13:12:01;2.97;;;2.00;;
10586;SDS011;5341;47.606;7.576;2022-07-06T13:14:29;2.53;;;1.90;;
10586;SDS011;5341;47.606;7.576;2022-07-06T13:16:56;4.22;;;1.95;;
10586;SDS011;5341;47.606;7.576;2022-07-06T13:19:25;2.47;;;1.92;;
10586;SDS011;5341;47.606;7.576;2022-07-06T13:21:53;2.70;;;1.73;;
10586;SDS011;5341;47.606;7.576;2022-07-06T13:24:22;8.93;;;2.17;;
10586;SDS011;5341;47.606;7.576;2022-07-06T13:26:49;4.15;;;1.80;;
10586;SDS011;5341;47.606;7.576;2022-07-06T13:29:17;2.38;;;1.80;;
10586;SDS011;5341;47.606;7.576;2022-07-06T13:31:45;4.10;;;1.80;;
10586;SDS011;5341;47.606;7.576;2022-07-06T13:34:14;6.40;;;2.05;;
10586;SDS011;5341;47.606;7.576;2022-07-06T13:36:43;2.63;;;1.80;;
10586;SDS011;5341;47.606;7.576;2022-07-06T13:39:14;3.38;;;1.83;;
10586;SDS011;5341;47.606;7.576;2022-07-06T13:41:41;4.07;;;2.33;;
10586;SDS011;5341;47.606;7.576;2022-07-06T13:44:09;4.15;;;2.10;;
10586;SDS011;5341;47.606;7.576;2022-07-06T13:46:37;2.67;;;2.00;;
10586;SDS011;5341;47.606;7.576;2022-07-06T13:49:06;3.47;;;1.80;;
10586;SDS011;5341;47.606;7.576;2022-07-06T13:51:33;2.17;;;1.90;;
10586;SDS011;5341;47.606;7.576;2022-07-06T13:54:02;3.05;;;1.83;;
10586;SDS011;5341;47.606;7.576;2022-07-06T13:56:31;3.13;;;1.77;;
10586;SDS011;5341;47.606;7.576;2022-07-06T13:59:00;3.92;;;2.10;;
10586;SDS011;5341;47.606;7.576;2022-07-06T14:01:27;3.15;;;1.95;;
10586;SDS011;5341;47.606;7.576;2022-07-06T14:03:55;4.78;;;1.75;;
10586;SDS011;5341;47.606;7.576;2022-07-06T14:06:22;5.55;;;1.80;;
10586;SDS011;5341;47.606;7.576;2022-07-06T14:08:50;2.60;;;2.00;;
10586;SDS011;5341;47.606;7.576;2022-07-06T14:11:19;4.95;;;1.75;;
10586;SDS011;5341;47.606;7.576;2022-07-06T14:13:47;2.80;;;1.70;;
10586;SDS011;5341;47.606;7.576;2022-07-06T14:16:14;3.67;;;1.83;;
10586;SDS011;5341;47.606;7.576;2022-07-06T14:18:42;2.65;;;1.88;;
10586;SDS011;5341;47.606;7.576;2022-07-06T14:21:10;4.25;;;1.85;;
10586;SDS011;5341;47.606;7.576;2022-07-06T14:23:37;2.90;;;1.77;;
10586;SDS011;5341;47.606;7.576;2022-07-06T14:26:05;4.57;;;2.13;;
10586;SDS011;5341;47.606;7.576;2022-07-06T14:28:34;4.80;;;1.95;;
10586;SDS011;5341;47.606;7.576;2022-07-06T14:31:01;2.80;;;1.90;;
10586;SDS011;5341;47.606;7.576;2022-07-06T14:33:29;2.38;;;1.60;;
10586;SDS011;5341;47.606;7.576;2022-07-06T14:35:56;3.90;;;1.60;;
10586;SDS011;5341;47.606;7.576;2022-07-06T14:38:24;2.95;;;1.70;;
10586;SDS011;5341;47.606;7.576;2022-07-06T14:40:53;3.92;;;1.90;;
10586;SDS011;5341;47.606;7.576;2022-07-06T14:43:20;2.20;;;1.73;;
10586;SDS011;5341;47.606;7.576;2022-07-06T14:45:49;3.95;;;1.80;;
10586;SDS011;5341;47.606;7.576;2022-07-06T14:48:16;4.25;;;1.95;;
10586;SDS011;5341;47.606;7.576;2022-07-06T14:50:44;3.63;;;1.60;;
10586;SDS011;5341;47.606;7.576;2022-07-06T14:53:12;2.50;;;1.77;;
10586;SDS011;5341;47.606;7.576;2022-07-06T14:55:39;5.30;;;1.95;;
10586;SDS011;5341;47.606;7.576;2022-07-06T14:58:07;3.70;;;1.90;;
10586;SDS011;5341;47.606;7.576;2022-07-06T15:00:34;3.40;;;1.80;;
10586;SDS011;5341;47.606;7.576;2022-07-06T15:03:03;6.30;;;2.03;;
10586;SDS011;5341;47.606;7.576;2022-07-06T15:05:31;3.15;;;1.70;;
10586;SDS011;5341;47.606;7.576;2022-07-06T15:07:59;14.63;;;2.03;;
10586;SDS011;5341;47.606;7.576;2022-07-06T15:10:26;2.45;;;1.90;;
10586;SDS011;5341;47.606;7.576;2022-07-06T15:12:54;2.40;;;1.77;;
10586;SDS011;5341;47.606;7.576;2022-07-06T15:15:21;5.20;;;2.00;;
10586;SDS011;5341;47.606;7.576;2022-07-06T15:17:49;4.63;;;2.03;;
10586;SDS011;5341;47.606;7.576;2022-07-06T15:20:18;2.40;;;1.90;;
10586;SDS011;5341;47.606;7.576;2022-07-06T15:22:47;3.83;;;1.83;;